createdAt,value
2018-07-01T00:00:13.894Z,14.68
2018-07-01T00:02:41.328Z,14.54
2018-07-01T00:05:09.080Z,14.42
2018-07-01T00:07:36.502Z,14.20
2018-07-01T00:10:04.869Z,14.25
2018-07-01T00:12:32.016Z,13.86
2018-07-01T00:14:59.128Z,13.26
2018-07-01T00:17:26.226Z,13.24
2018-07-01T00:19:53.381Z,13.35
2018-07-01T00:22:20.555Z,13.46
2018-07-01T00:24:47.652Z,13.57
2018-07-01T00:27:14.822Z,13.60
2018-07-01T00:29:41.952Z,13.97
2018-07-01T00:32:09.150Z,13.96
2018-07-01T00:34:36.424Z,13.94
2018-07-01T00:37:03.585Z,13.91
2018-07-01T00:39:30.697Z,14.04
2018-07-01T00:41:57.852Z,13.99
2018-07-01T00:44:25.133Z,14.10
2018-07-01T00:46:52.268Z,14.06
2018-07-01T00:49:19.397Z,13.49
2018-07-01T00:51:46.509Z,13.34
2018-07-01T00:54:13.635Z,12.77
2018-07-01T00:56:40.831Z,12.58
2018-07-01T00:59:07.932Z,12.45
2018-07-01T01:01:35.123Z,12.33
2018-07-01T01:04:02.277Z,12.22
2018-07-01T01:06:29.604Z,12.40
2018-07-01T01:08:56.731Z,12.71
2018-07-01T01:11:23.892Z,12.75
2018-07-01T01:13:51.016Z,12.86
2018-07-01T01:16:18.184Z,12.83
2018-07-01T01:18:45.285Z,12.75
2018-07-01T01:21:12.432Z,12.49
2018-07-01T01:23:39.571Z,12.54
2018-07-01T01:26:06.708Z,12.43
2018-07-01T01:28:33.897Z,12.16
2018-07-01T01:31:01.120Z,12.11
2018-07-01T01:33:28.334Z,12.00
2018-07-01T01:35:55.557Z,11.84
2018-07-01T01:38:24.245Z,11.76
2018-07-01T01:40:55.947Z,11.94
2018-07-01T01:43:28.804Z,11.98
2018-07-01T01:46:01.586Z,11.80
2018-07-01T01:48:48.697Z,12.18
2018-07-01T01:51:21.817Z,11.67
2018-07-01T01:53:54.349Z,11.67
2018-07-01T01:57:27.027Z,11.46
2018-07-01T02:00:01.237Z,11.52
2018-07-01T02:02:33.756Z,11.54
2018-07-01T02:05:07.869Z,11.73
2018-07-01T02:07:40.372Z,11.64
2018-07-01T02:10:07.541Z,11.57
2018-07-01T02:12:34.712Z,11.56
2018-07-01T02:15:05.193Z,11.25
2018-07-01T02:17:38.892Z,11.18
2018-07-01T02:20:06.479Z,10.68
2018-07-01T02:22:38.664Z,10.32
2018-07-01T02:25:09.817Z,10.69
2018-07-01T02:27:37.032Z,10.91
2018-07-01T02:30:04.777Z,11.08
2018-07-01T02:32:31.920Z,11.16
2018-07-01T02:34:59.056Z,11.05
2018-07-01T02:37:26.181Z,10.62
2018-07-01T02:39:53.305Z,10.83
2018-07-01T02:42:20.469Z,10.55
2018-07-01T02:44:47.718Z,10.42
2018-07-01T02:47:14.860Z,10.34
2018-07-01T02:49:42.041Z,10.28
2018-07-01T02:52:09.189Z,10.27
2018-07-01T02:54:36.305Z,10.19
2018-07-01T02:57:03.461Z,10.12
2018-07-01T02:59:30.640Z,10.17
2018-07-01T03:01:57.737Z,10.24
2018-07-01T03:04:24.893Z,10.28
2018-07-01T03:06:52.004Z,10.17
2018-07-01T03:09:19.116Z,10.05
2018-07-01T03:11:46.241Z,10.19
2018-07-01T03:14:13.367Z,9.90
2018-07-01T03:16:40.545Z,9.99
2018-07-01T03:19:07.717Z,9.89
2018-07-01T03:21:34.859Z,9.82
2018-07-01T03:24:02.067Z,10.15
2018-07-01T03:26:29.363Z,10.53
2018-07-01T03:28:56.535Z,10.63
2018-07-01T03:31:23.664Z,10.65
2018-07-01T03:33:50.932Z,10.83
2018-07-01T03:36:18.044Z,10.93
2018-07-01T03:38:45.173Z,11.09
2018-07-01T03:41:12.296Z,10.95
2018-07-01T03:43:40.195Z,10.96
2018-07-01T03:46:07.349Z,10.69
2018-07-01T03:48:34.435Z,10.65
2018-07-01T03:51:01.593Z,10.70
2018-07-01T03:53:28.793Z,10.62
2018-07-01T03:55:55.956Z,9.92
2018-07-01T03:58:23.133Z,9.40
2018-07-01T04:00:50.282Z,9.38
2018-07-01T04:03:17.492Z,9.52
2018-07-01T04:05:44.655Z,9.48
2018-07-01T04:08:11.901Z,9.60
2018-07-01T04:10:39.097Z,10.21
2018-07-01T04:13:06.229Z,10.32
2018-07-01T04:15:33.337Z,10.71
2018-07-01T04:18:00.492Z,10.99
2018-07-01T04:20:27.649Z,11.17
2018-07-01T04:22:54.953Z,11.35
2018-07-01T04:25:22.047Z,11.66
2018-07-01T04:27:49.189Z,11.67
2018-07-01T04:30:16.345Z,11.69
2018-07-01T04:32:43.502Z,11.54
2018-07-01T04:35:10.688Z,11.50
2018-07-01T04:37:37.788Z,11.81
2018-07-01T04:40:04.945Z,11.86
2018-07-01T04:42:32.090Z,12.16
2018-07-01T04:44:59.200Z,12.35
2018-07-01T04:47:26.355Z,12.37
2018-07-01T04:49:53.486Z,12.42
2018-07-01T04:52:20.621Z,12.52
2018-07-01T04:54:47.910Z,12.57
2018-07-01T04:57:15.009Z,12.51
2018-07-01T04:59:42.287Z,12.80
2018-07-01T05:02:09.534Z,13.03
2018-07-01T05:04:36.592Z,13.17
2018-07-01T05:07:03.689Z,13.44
2018-07-01T05:09:30.831Z,13.54
2018-07-01T05:11:57.956Z,13.73
2018-07-01T05:14:25.092Z,14.03
2018-07-01T05:16:52.823Z,13.94
2018-07-01T05:19:20.013Z,14.10
2018-07-01T05:21:47.211Z,14.16
2018-07-01T05:24:14.390Z,14.41
2018-07-01T05:26:41.533Z,14.60
2018-07-01T05:29:08.655Z,14.65
2018-07-01T05:31:35.785Z,15.00
2018-07-01T05:34:02.996Z,15.07
2018-07-01T05:36:30.132Z,14.97
2018-07-01T05:38:57.337Z,15.11
2018-07-01T05:41:24.479Z,15.29
2018-07-01T05:43:51.628Z,15.52
2018-07-01T05:46:18.904Z,15.43
2018-07-01T05:48:46.079Z,15.79
2018-07-01T05:51:13.220Z,15.88
2018-07-01T05:53:40.371Z,15.95
2018-07-01T05:56:07.560Z,15.91
2018-07-01T05:58:34.771Z,16.04
2018-07-01T06:01:01.956Z,16.31
2018-07-01T06:03:29.096Z,16.29
2018-07-01T06:05:56.308Z,16.57
2018-07-01T06:08:23.431Z,17.03
2018-07-01T06:10:50.621Z,17.39
2018-07-01T06:13:17.779Z,17.81
2018-07-01T06:15:44.922Z,17.65
2018-07-01T06:18:12.056Z,17.88
2018-07-01T06:20:39.220Z,17.99
2018-07-01T06:23:06.382Z,17.79
2018-07-01T06:25:34.682Z,17.64
2018-07-01T06:28:01.813Z,17.76
2018-07-01T06:30:28.937Z,18.00
2018-07-01T06:32:56.256Z,18.03
2018-07-01T06:35:23.315Z,18.11
2018-07-01T06:37:50.485Z,18.11
2018-07-01T06:40:17.673Z,18.41
2018-07-01T06:42:44.849Z,18.17
2018-07-01T06:45:12.225Z,18.30
2018-07-01T06:47:39.379Z,18.56
2018-07-01T06:50:06.574Z,18.57
2018-07-01T06:52:33.724Z,18.65
2018-07-01T06:55:00.918Z,18.74
2018-07-01T06:57:28.065Z,19.27
2018-07-01T06:59:55.283Z,19.01
2018-07-01T07:02:22.534Z,18.87
2018-07-01T07:04:49.644Z,19.08
2018-07-01T07:07:16.837Z,19.08
2018-07-01T07:09:44.052Z,19.16
2018-07-01T07:12:11.221Z,19.15
2018-07-01T07:14:38.434Z,19.34
2018-07-01T07:17:05.645Z,19.04
2018-07-01T07:19:32.780Z,19.34
2018-07-01T07:22:00.039Z,19.54
2018-07-01T07:24:27.291Z,19.82
2018-07-01T07:26:54.479Z,19.72
2018-07-01T07:29:21.674Z,20.04
2018-07-01T07:31:48.824Z,19.93
2018-07-01T07:34:15.975Z,19.50
2018-07-01T07:36:43.175Z,19.34
2018-07-01T07:39:11.411Z,19.85
2018-07-01T07:41:38.627Z,20.04
2018-07-01T07:44:05.785Z,20.16
2018-07-01T07:46:33.241Z,19.80
2018-07-01T07:49:00.403Z,20.21
2018-07-01T07:54:01.433Z,19.63
2018-07-01T07:56:28.593Z,20.06
2018-07-01T07:58:55.829Z,20.44
2018-07-01T08:01:22.956Z,20.91
2018-07-01T08:03:50.160Z,19.84
2018-07-01T08:06:17.320Z,20.31
2018-07-01T08:08:44.528Z,20.47
2018-07-01T08:11:11.728Z,20.38
2018-07-01T08:13:38.952Z,20.95
2018-07-01T08:16:06.227Z,20.23
2018-07-01T08:18:33.513Z,20.43
2018-07-01T08:21:00.648Z,20.31
2018-07-01T08:23:27.740Z,20.55
2018-07-01T08:25:54.899Z,20.94
2018-07-01T08:28:22.049Z,21.03
2018-07-01T08:30:49.285Z,21.17
2018-07-01T08:33:16.426Z,21.35
2018-07-01T08:35:43.607Z,21.40
2018-07-01T08:38:10.880Z,21.17
2018-07-01T08:40:38.044Z,21.43
2018-07-01T08:43:05.186Z,21.66
2018-07-01T08:45:32.306Z,21.57
2018-07-01T08:47:59.447Z,21.24
2018-07-01T08:50:26.616Z,21.77
2018-07-01T08:52:53.817Z,21.69
2018-07-01T08:55:20.993Z,21.97
2018-07-01T08:57:48.209Z,22.02
2018-07-01T09:00:15.365Z,21.85
2018-07-01T09:02:42.565Z,21.42
2018-07-01T09:05:09.732Z,21.35
2018-07-01T09:07:36.890Z,21.29
2018-07-01T09:10:04.709Z,21.50
2018-07-01T09:12:31.857Z,21.36
2018-07-01T09:14:58.982Z,20.80
2018-07-01T09:17:26.121Z,21.26
2018-07-01T09:19:53.307Z,21.33
2018-07-01T09:22:20.460Z,21.18
2018-07-01T09:24:47.661Z,20.93
2018-07-01T09:27:14.821Z,21.66
2018-07-01T09:29:47.670Z,22.09
2018-07-01T09:32:14.839Z,21.91
2018-07-01T09:34:42.022Z,22.37
2018-07-01T09:37:09.136Z,22.14
2018-07-01T09:39:36.248Z,22.09
2018-07-01T09:42:03.456Z,22.30
2018-07-01T09:44:30.601Z,22.25
2018-07-01T09:46:57.825Z,22.67
2018-07-01T09:49:24.993Z,22.40
2018-07-01T09:51:52.372Z,21.92
2018-07-01T09:54:19.546Z,21.54
2018-07-01T09:56:46.661Z,21.52
2018-07-01T09:59:13.879Z,21.75
2018-07-01T10:01:41.060Z,22.03
2018-07-01T10:04:08.228Z,22.31
2018-07-01T10:06:35.326Z,22.29
2018-07-01T10:09:02.601Z,21.67
2018-07-01T10:11:29.725Z,22.13
2018-07-01T10:13:56.838Z,22.16
2018-07-01T10:16:24.052Z,22.50
2018-07-01T10:18:51.305Z,22.68
2018-07-01T10:21:18.500Z,22.55
2018-07-01T10:23:45.696Z,22.13
2018-07-01T10:26:12.841Z,21.75
2018-07-01T10:28:55.176Z,22.94
2018-07-01T10:31:22.371Z,23.12
2018-07-01T10:33:49.537Z,23.34
2018-07-01T10:36:16.733Z,23.51
2018-07-01T10:38:43.840Z,22.71
2018-07-01T10:41:11.036Z,22.41
2018-07-01T10:43:38.195Z,22.42
2018-07-01T10:46:05.403Z,23.19
2018-07-01T10:48:32.516Z,23.14
2018-07-01T10:50:59.688Z,22.82
2018-07-01T10:53:26.840Z,22.85
2018-07-01T10:55:54.096Z,22.81
2018-07-01T10:58:21.228Z,22.58
2018-07-01T11:00:48.349Z,22.98
2018-07-01T11:03:15.552Z,23.43
2018-07-01T11:05:42.677Z,23.94
2018-07-01T11:08:09.760Z,23.51
2018-07-01T11:10:36.952Z,23.82
2018-07-01T11:13:04.484Z,23.60
2018-07-01T11:15:31.636Z,23.60
2018-07-01T11:17:58.765Z,23.80
2018-07-01T11:20:26.139Z,23.36
2018-07-01T11:22:53.327Z,23.72
2018-07-01T11:25:20.472Z,24.42
2018-07-01T11:27:47.657Z,23.80
2018-07-01T11:30:14.780Z,23.77
2018-07-01T11:32:41.929Z,24.32
2018-07-01T11:35:09.126Z,23.65
2018-07-01T11:37:36.281Z,23.64
2018-07-01T11:40:04.024Z,24.01
2018-07-01T11:42:31.180Z,25.10
2018-07-01T11:44:58.360Z,24.67
2018-07-01T11:47:25.477Z,24.98
2018-07-01T11:49:52.589Z,24.71
2018-07-01T11:52:19.797Z,24.57
2018-07-01T11:54:46.967Z,24.86
2018-07-01T11:57:14.227Z,24.08
2018-07-01T11:59:41.437Z,24.56
2018-07-01T12:02:08.766Z,23.75
2018-07-01T12:04:36.016Z,24.10
2018-07-01T12:07:03.229Z,24.23
2018-07-01T12:09:30.423Z,23.71
2018-07-01T12:11:57.746Z,23.91
2018-07-01T12:14:24.908Z,23.82
2018-07-01T12:16:52.097Z,24.41
2018-07-01T12:19:20.448Z,25.60
2018-07-01T12:21:47.613Z,25.37
2018-07-01T12:24:14.763Z,25.37
2018-07-01T12:26:41.932Z,25.65
2018-07-01T12:29:09.143Z,25.21
2018-07-01T12:31:36.265Z,25.26
2018-07-01T12:34:03.593Z,24.99
2018-07-01T12:36:30.761Z,25.12
2018-07-01T12:38:57.933Z,25.86
2018-07-01T12:41:25.068Z,25.78
2018-07-01T12:43:52.629Z,24.59
2018-07-01T12:46:19.804Z,24.78
2018-07-01T12:48:46.975Z,25.58
2018-07-01T12:51:14.160Z,25.64
2018-07-01T12:53:41.425Z,25.13
2018-07-01T12:56:08.606Z,25.32
2018-07-01T12:58:35.750Z,26.25
2018-07-01T13:01:02.993Z,26.06
2018-07-01T13:03:30.192Z,26.03
2018-07-01T13:05:57.412Z,25.92
2018-07-01T13:08:24.561Z,25.98
2018-07-01T13:10:51.768Z,25.34
2018-07-01T13:13:18.947Z,25.14
2018-07-01T13:15:46.268Z,24.95
2018-07-01T13:18:13.391Z,25.19
2018-07-01T13:20:40.709Z,26.26
2018-07-01T13:23:07.927Z,25.98
2018-07-01T13:25:35.083Z,25.89
2018-07-01T13:28:02.308Z,26.60
2018-07-01T13:30:29.478Z,26.52
2018-07-01T13:32:56.681Z,25.76
2018-07-01T13:35:23.833Z,25.94
2018-07-01T13:37:51.027Z,25.72
2018-07-01T13:40:18.283Z,25.26
2018-07-01T13:42:45.517Z,26.21
2018-07-01T13:45:12.680Z,25.93
2018-07-01T13:47:39.892Z,25.97
2018-07-01T13:50:07.151Z,26.68
2018-07-01T13:52:34.378Z,25.64
2018-07-01T13:55:01.777Z,24.92
2018-07-01T13:57:28.978Z,25.94
2018-07-01T13:59:56.217Z,26.36
2018-07-01T14:02:27.656Z,26.33
2018-07-01T14:04:55.178Z,26.60
2018-07-01T14:07:22.381Z,26.25
2018-07-01T14:09:49.602Z,26.22
2018-07-01T14:12:16.813Z,26.63
2018-07-01T14:14:44.042Z,25.81
2018-07-01T14:17:11.225Z,26.86
2018-07-01T14:19:38.411Z,27.02
2018-07-01T14:22:05.563Z,26.00
2018-07-01T14:24:32.765Z,25.31
2018-07-01T14:26:59.926Z,25.78
2018-07-01T14:29:27.106Z,26.18
2018-07-01T14:31:54.355Z,25.73
2018-07-01T14:34:21.567Z,25.10
2018-07-01T14:36:48.714Z,25.68
2018-07-01T14:39:15.864Z,25.66
2018-07-01T14:41:43.072Z,25.14
2018-07-01T14:44:10.286Z,25.66
2018-07-01T14:46:37.486Z,25.08
2018-07-01T14:49:05.045Z,25.68
2018-07-01T14:51:32.477Z,25.29
2018-07-01T14:53:59.646Z,25.37
2018-07-01T14:56:27.386Z,25.51
2018-07-01T14:58:54.869Z,25.92
2018-07-01T15:01:22.121Z,26.00
2018-07-01T15:03:49.229Z,25.22
2018-07-01T15:06:16.428Z,25.89
2018-07-01T15:08:43.641Z,25.50
2018-07-01T15:11:10.868Z,24.99
2018-07-01T15:13:38.098Z,24.88
2018-07-01T15:16:05.572Z,25.25
2018-07-01T15:18:32.756Z,25.02
2018-07-01T15:21:00.001Z,25.13
2018-07-01T15:23:27.175Z,24.92
2018-07-01T15:25:54.828Z,24.58
2018-07-01T15:28:22.213Z,25.51
2018-07-01T15:30:49.417Z,25.70
2018-07-01T15:33:16.652Z,26.07
2018-07-01T15:35:43.946Z,25.66
2018-07-01T15:38:11.517Z,25.23
2018-07-01T15:40:45.836Z,25.36
2018-07-01T15:43:14.376Z,25.18
2018-07-01T15:45:41.696Z,25.17
2018-07-01T15:48:08.916Z,25.23
2018-07-01T15:50:36.167Z,24.99
2018-07-01T15:53:03.644Z,24.90
2018-07-01T15:55:30.697Z,25.01
2018-07-01T15:57:57.928Z,25.28
2018-07-01T16:00:25.173Z,24.94
2018-07-01T16:02:52.353Z,24.55
2018-07-01T16:05:19.553Z,24.29
2018-07-01T16:07:46.758Z,24.22
2018-07-01T16:10:13.989Z,23.97
2018-07-01T16:12:41.166Z,24.48
2018-07-01T16:15:08.381Z,24.52
2018-07-01T16:17:35.538Z,24.25
2018-07-01T16:20:03.401Z,24.48
2018-07-01T16:22:30.576Z,24.08
2018-07-01T16:25:03.646Z,24.22
2018-07-01T16:27:33.524Z,24.18
2018-07-01T16:30:03.249Z,24.06
2018-07-01T16:32:30.864Z,23.46
2018-07-01T16:34:58.130Z,23.86
2018-07-01T16:37:25.360Z,23.74
2018-07-01T16:39:52.508Z,23.78
2018-07-01T16:42:19.649Z,23.23
2018-07-01T16:44:46.977Z,23.39
2018-07-01T16:47:14.192Z,23.36
2018-07-01T16:49:41.650Z,23.57
2018-07-01T16:52:08.820Z,23.60
2018-07-01T16:54:35.977Z,23.42
2018-07-01T16:57:03.216Z,23.23
2018-07-01T16:59:30.409Z,23.17
2018-07-01T17:01:57.577Z,22.89
2018-07-01T17:04:24.700Z,23.28
2018-07-01T17:06:51.890Z,23.07
2018-07-01T17:09:19.064Z,22.68
2018-07-01T17:11:46.307Z,22.41
2018-07-01T17:14:13.411Z,22.80
2018-07-01T17:16:40.553Z,22.53
2018-07-01T17:19:07.679Z,22.91
2018-07-01T17:21:34.888Z,22.90
2018-07-01T17:24:02.105Z,22.66
2018-07-01T17:26:29.367Z,22.63
2018-07-01T17:28:56.583Z,22.27
2018-07-01T17:31:29.639Z,22.20
2018-07-01T17:33:56.823Z,22.06
2018-07-01T17:36:23.968Z,22.28
2018-07-01T17:38:51.106Z,21.87
2018-07-01T17:41:18.260Z,22.01
2018-07-01T17:43:45.425Z,22.20
2018-07-01T17:46:12.560Z,22.08
2018-07-01T17:48:39.699Z,21.95
2018-07-01T17:51:06.931Z,21.92
2018-07-01T17:53:45.569Z,21.92
2018-07-01T17:56:12.926Z,21.76
2018-07-01T17:58:40.091Z,21.69
2018-07-01T18:01:07.354Z,21.61
2018-07-01T18:03:34.510Z,21.53
2018-07-01T18:06:01.705Z,21.66
2018-07-01T18:08:28.895Z,21.74
2018-07-01T18:10:56.037Z,21.67
2018-07-01T18:13:23.200Z,21.46
2018-07-01T18:15:50.361Z,21.34
2018-07-01T18:18:17.530Z,21.42
2018-07-01T18:20:44.788Z,21.34
2018-07-01T18:23:44.882Z,21.35
2018-07-01T18:25:39.281Z,21.30
2018-07-01T18:28:18.878Z,20.89
2018-07-01T18:30:33.624Z,20.88
2018-07-01T18:33:00.839Z,21.07
2018-07-01T18:35:28.045Z,21.11
2018-07-01T18:37:55.184Z,20.87
2018-07-01T18:40:22.395Z,20.90
2018-07-01T18:42:49.643Z,20.96
2018-07-01T18:45:16.880Z,20.70
2018-07-01T18:47:44.121Z,20.54
2018-07-01T18:50:11.331Z,20.56
2018-07-01T18:52:38.536Z,20.49
2018-07-01T18:55:05.752Z,20.34
2018-07-01T18:57:32.977Z,20.16
2018-07-01T19:00:00.243Z,20.13
2018-07-01T19:02:27.371Z,19.90
2018-07-01T19:04:54.535Z,19.75
2018-07-01T19:07:21.783Z,19.60
2018-07-01T19:09:48.971Z,19.69
2018-07-01T19:12:16.168Z,19.60
2018-07-01T19:14:43.348Z,19.76
2018-07-01T19:17:10.526Z,19.69
2018-07-01T19:19:37.756Z,19.59
2018-07-01T19:22:05.003Z,19.25
2018-07-01T19:24:32.113Z,19.19
2018-07-01T19:26:59.197Z,19.03
2018-07-01T19:29:26.349Z,19.00
2018-07-01T19:31:53.469Z,19.01
2018-07-01T19:34:20.646Z,19.04
2018-07-01T19:36:47.806Z,18.93
2018-07-01T19:39:14.933Z,18.93
2018-07-01T19:41:42.103Z,18.63
2018-07-01T19:44:09.225Z,18.51
2018-07-01T19:46:36.397Z,18.30
2018-07-01T19:49:03.516Z,18.23
2018-07-01T19:51:30.670Z,18.22
2018-07-01T19:53:57.846Z,18.27
2018-07-01T19:56:25.020Z,18.27
2018-07-01T19:58:52.165Z,18.23
2018-07-01T20:01:19.556Z,18.12
2018-07-01T20:03:46.764Z,18.08
2018-07-01T20:06:14.072Z,17.91
2018-07-01T20:08:41.224Z,17.91
2018-07-01T20:11:08.375Z,17.89
2018-07-01T20:13:35.549Z,17.81
2018-07-01T20:16:02.690Z,17.69
2018-07-01T20:18:36.853Z,17.53
2018-07-01T20:21:03.965Z,17.62
2018-07-01T20:23:31.179Z,17.70
2018-07-01T20:25:58.349Z,17.39
2018-07-01T20:28:25.500Z,17.44
2018-07-01T20:30:52.680Z,17.21
2018-07-01T20:33:19.893Z,17.34
2018-07-01T20:35:47.088Z,17.26
2018-07-01T20:38:14.385Z,17.20
2018-07-01T20:40:41.499Z,16.97
2018-07-01T20:43:08.712Z,17.12
2018-07-01T20:45:35.789Z,16.83
2018-07-01T20:48:02.905Z,16.86
2018-07-01T20:50:30.070Z,16.81
2018-07-01T20:52:57.216Z,16.73
2018-07-01T20:55:24.535Z,16.80
2018-07-01T20:57:51.766Z,16.71
2018-07-01T21:00:18.968Z,16.42
2018-07-01T21:02:46.116Z,16.29
2018-07-01T21:05:13.318Z,16.28
2018-07-01T21:07:40.456Z,16.35
2018-07-01T21:10:07.751Z,16.30
2018-07-01T21:12:34.883Z,16.11
2018-07-01T21:15:02.042Z,16.11
2018-07-01T21:17:29.176Z,16.05
2018-07-01T21:19:56.332Z,15.86
2018-07-01T21:22:23.572Z,16.03
2018-07-01T21:24:50.774Z,16.04
2018-07-01T21:27:17.859Z,16.10
2018-07-01T21:29:45.001Z,16.20
2018-07-01T21:32:12.156Z,16.21
2018-07-01T21:34:39.336Z,16.51
2018-07-01T21:37:06.515Z,16.36
2018-07-01T21:39:33.653Z,16.27
2018-07-01T21:42:00.772Z,16.21
2018-07-01T21:44:27.958Z,16.05
2018-07-01T21:46:55.088Z,16.06
2018-07-01T21:49:22.324Z,16.14
2018-07-01T21:51:49.453Z,16.20
2018-07-01T21:54:16.636Z,16.32
2018-07-01T21:56:43.797Z,16.37
2018-07-01T21:59:10.881Z,16.22
2018-07-01T22:01:38.129Z,16.04
2018-07-01T22:04:05.233Z,16.01
2018-07-01T22:06:38.157Z,16.05
2018-07-01T22:09:06.071Z,16.12
2018-07-01T22:11:47.457Z,16.18
2018-07-01T22:14:23.809Z,16.26
2018-07-01T22:16:50.937Z,16.16
2018-07-01T22:19:18.628Z,16.15
2018-07-01T22:21:47.149Z,16.06
2018-07-01T22:24:14.586Z,15.78
2018-07-01T22:26:42.145Z,15.29
2018-07-01T22:29:10.196Z,15.32
2018-07-01T22:31:37.347Z,15.29
2018-07-01T22:34:04.567Z,14.87
2018-07-01T22:36:31.760Z,14.74
2018-07-01T22:38:58.985Z,14.98
2018-07-01T22:41:26.133Z,15.26
2018-07-01T22:43:53.289Z,15.19
2018-07-01T22:46:20.441Z,14.87
2018-07-01T22:48:47.556Z,14.85
2018-07-01T22:51:14.695Z,14.91
2018-07-01T22:53:42.037Z,15.01
2018-07-01T22:56:09.219Z,15.16
2018-07-01T22:58:36.330Z,15.09
2018-07-01T23:01:03.556Z,15.13
2018-07-01T23:03:30.725Z,15.11
2018-07-01T23:05:57.880Z,15.09
2018-07-01T23:08:24.993Z,15.05
2018-07-01T23:10:52.124Z,14.99
2018-07-01T23:13:19.374Z,14.87
2018-07-01T23:15:46.561Z,14.51
2018-07-01T23:18:13.699Z,14.28
2018-07-01T23:20:40.915Z,14.21
2018-07-01T23:23:08.135Z,13.96
2018-07-01T23:25:35.235Z,13.80
2018-07-01T23:28:02.353Z,13.75
2018-07-01T23:30:29.455Z,13.93
2018-07-01T23:32:56.593Z,13.98
2018-07-01T23:35:23.751Z,14.07
2018-07-01T23:37:50.938Z,13.96
2018-07-01T23:40:18.120Z,13.95
2018-07-01T23:42:45.306Z,13.58
2018-07-01T23:45:13.664Z,13.34
2018-07-01T23:47:40.856Z,13.31
2018-07-01T23:50:08.359Z,13.31
2018-07-01T23:52:35.499Z,13.74
2018-07-01T23:55:02.960Z,13.45
2018-07-01T23:57:30.167Z,12.85
2018-07-01T23:59:57.364Z,12.60
